Time;durP1;ratioP1;P1;durP2;ratioP2;P2;SDS_P1;SDS_P2;PMS_P1;PMS_P2;Temp;Humidity;BMP_temperature;BMP_pressure;BME280_temperature;BME280_humidity;BME280_pressure;Samples;Min_cycle;Max_cycle;Signal;HPM_P1;HPM_P2
2021/08/16 05:15:04;;;;;;;;;;;;;;;19.96;56.80;99755.53;5945949;23;1510;-60
2021/08/16 05:17:31;;;;;;;;;;;;;;;20.13;56.84;99759.56;5031492;28;1137;-59
2021/08/16 05:19:57;;;;;;;;;;;;;;;20.18;56.36;99769.38;5032391;28;861;-59
2021/08/16 05:22:24;;;;;;;;;;;;;;;20.21;56.72;99764.88;5032350;28;1907;-60
2021/08/16 05:24:50;;;;;;;;;;;;;;;20.37;56.46;99768.09;5032303;28;867;-60
2021/08/16 05:27:18;;;;;;;;;;;;;;;20.67;55.09;99770.41;5032147;28;1127;-60
2021/08/16 05:29:45;;;;;;;;;;;;;;;20.98;54.79;99765.28;5032277;28;885;-59
2021/08/16 05:32:12;;;;;;;;;;;;;;;21.40;54.36;99758.00;5030931;28;826;-60
2021/08/16 05:34:39;;;;;;;;;;;;;;;21.91;53.08;99756.25;5032155;28;1012;-60
2021/08/16 05:37:06;;;;;;;;;;;;;;;22.68;51.53;99761.00;5031643;28;865;-60
2021/08/16 05:39:33;;;;;;;;;;;;;;;23.73;48.68;99761.47;5032185;28;841;-60
2021/08/16 05:42:00;;;;;;;;;;;;;;;24.88;46.09;99754.38;5031921;28;1910;-60
2021/08/16 05:44:26;;;;;;;;;;;;;;;25.87;43.99;99760.31;5031599;28;909;-60
2021/08/16 05:46:53;;;;;;;;;;;;;;;26.28;42.78;99760.66;5032069;28;853;-60
2021/08/16 05:49:19;;;;;;;;;;;;;;;26.43;41.72;99751.94;5031990;28;815;-60
2021/08/16 05:51:46;;;;;;;;;;;;;;;26.53;42.31;99760.19;5032067;28;861;-60
2021/08/16 05:54:13;;;;;;;;;;;;;;;26.91;41.34;99757.84;5032069;28;838;-60
2021/08/16 05:56:39;;;;;;;;;;;;;;;27.52;40.82;99762.63;5032027;28;799;-60
2021/08/16 05:59:06;;;;;;;;;;;;;;;28.23;39.18;99766.94;5032096;28;814;-60
2021/08/16 06:01:33;;;;;;;;;;;;;;;29.21;37.57;99772.91;5031623;28;1882;-60
2021/08/16 06:04:00;;;;;;;;;;;;;;;29.82;36.05;99773.47;5031684;28;921;-60
2021/08/16 06:06:27;;;;;;;;;;;;;;;30.32;35.61;99769.19;5031692;28;857;-60
2021/08/16 06:08:53;;;;;;;;;;;;;;;30.82;34.23;99757.47;5031868;28;826;-60
2021/08/16 06:11:20;;;;;;;;;;;;;;;30.98;33.54;99764.22;5031775;28;838;-60
2021/08/16 06:13:47;;;;;;;;;;;;;;;31.43;32.92;99758.47;5031449;28;897;-60
2021/08/16 06:16:13;;;;;;;;;;;;;;;31.57;33.02;99761.31;5039774;28;1257;-60
2021/08/16 06:18:40;;;;;;;;;;;;;;;31.76;32.01;99761.94;5051446;28;905;-60
2021/08/16 06:21:07;;;;;;;;;;;;;;;31.58;32.05;99755.03;5051353;28;2293;-60
2021/08/16 06:23:34;;;;;;;;;;;;;;;31.98;32.33;99757.81;5051592;28;960;-60
2021/08/16 06:26:01;;;;;;;;;;;;;;;32.38;31.62;99756.94;5051322;28;968;-60
2021/08/16 06:28:29;;;;;;;;;;;;;;;32.64;30.57;99768.25;5051188;28;922;-60
2021/08/16 06:30:55;;;;;;;;;;;;;;;32.86;30.06;99769.00;5051276;28;862;-60
2021/08/16 06:33:21;;;;;;;;;;;;;;;33.28;29.39;99763.97;5051330;28;827;-60
2021/08/16 06:35:48;;;;;;;;;;;;;;;33.36;29.01;99767.66;5051529;28;850;-61
2021/08/16 06:38:22;;;;;;;;;;;;;;;33.46;28.51;99767.91;5051552;28;810;-61
2021/08/16 06:40:50;;;;;;;;;;;;;;;33.68;28.49;99766.50;5051163;28;1894;-61
2021/08/16 06:43:17;;;;;;;;;;;;;;;34.06;27.32;99768.00;5051154;28;803;-61
2021/08/16 06:45:44;;;;;;;;;;;;;;;33.97;27.29;99770.06;5051072;28;849;-61
2021/08/16 06:48:11;;;;;;;;;;;;;;;33.76;27.49;99769.44;5051179;28;834;-61
2021/08/16 06:50:39;;;;;;;;;;;;;;;33.87;27.80;99777.69;5054558;28;913;-61
2021/08/16 06:53:06;;;;;;;;;;;;;;;34.20;27.38;99777.22;5037124;28;1555;-61
2021/08/16 06:55:33;;;;;;;;;;;;;;;34.68;27.33;99769.69;5054947;28;853;-61
2021/08/16 06:58:00;;;;;;;;;;;;;;;34.80;26.59;99767.19;5054950;28;826;-61
2021/08/16 07:00:27;;;;;;;;;;;;;;;34.81;25.80;99777.34;5054893;28;893;-61
2021/08/16 07:02:54;;;;;;;;;;;;;;;34.96;24.58;99783.06;5054760;28;1886;-61
2021/08/16 07:05:20;;;;;;;;;;;;;;;34.71;24.31;99782.88;5055049;28;922;-61
2021/08/16 07:07:49;;;;;;;;;;;;;;;34.53;23.71;99778.25;5054749;28;810;-61
2021/08/16 07:10:16;;;;;;;;;;;;;;;34.61;22.75;99773.28;5054689;28;934;-61
2021/08/16 07:12:43;;;;;;;;;;;;;;;34.87;22.83;99777.91;5054773;28;881;-61
2021/08/16 07:15:09;;;;;;;;;;;;;;;35.02;23.13;99774.28;5054874;28;899;-61
2021/08/16 07:17:36;;;;;;;;;;;;;;;35.02;22.44;99782.88;5033310;28;1448;-61
2021/08/16 07:20:03;;;;;;;;;;;;;;;35.12;22.41;99780.19;5033361;28;1235;-61
2021/08/16 07:22:30;;;;;;;;;;;;;;;35.27;22.70;99785.16;5034582;28;1973;-61
2021/08/16 07:24:56;;;;;;;;;;;;;;;35.33;22.68;99788.59;5034566;28;873;-61
2021/08/16 07:27:23;;;;;;;;;;;;;;;35.68;22.84;99775.31;5034571;28;798;-61
2021/08/16 07:29:49;;;;;;;;;;;;;;;35.75;22.10;99776.63;5034426;28;872;-61
2021/08/16 07:32:16;;;;;;;;;;;;;;;35.97;22.40;99789.38;5034462;28;983;-61
2021/08/16 07:34:43;;;;;;;;;;;;;;;36.09;21.61;99772.44;5034393;28;849;-61
2021/08/16 07:37:12;;;;;;;;;;;;;;;36.61;21.98;99783.44;5034346;28;881;-61
2021/08/16 07:39:38;;;;;;;;;;;;;;;36.92;20.88;99792.63;5034375;28;889;-61
2021/08/16 07:42:05;;;;;;;;;;;;;;;36.25;20.59;99781.78;5034284;28;1941;-62
2021/08/16 07:44:32;;;;;;;;;;;;;;;35.82;21.92;99784.44;5034613;28;850;-61
2021/08/16 07:46:59;;;;;;;;;;;;;;;36.17;21.34;99773.19;5034122;28;794;-61
2021/08/16 07:49:26;;;;;;;;;;;;;;;36.37;21.48;99772.09;5034114;28;823;-61
2021/08/16 07:51:53;;;;;;;;;;;;;;;36.85;21.32;99776.19;5034100;28;825;-61
2021/08/16 07:54:19;;;;;;;;;;;;;;;37.27;20.40;99776.19;5034313;28;898;-61
2021/08/16 07:56:49;;;;;;;;;;;;;;;37.36;20.21;99777.63;5034007;28;850;-61
2021/08/16 07:59:18;;;;;;;;;;;;;;;37.32;20.58;99778.06;5033905;28;933;-62
2021/08/16 08:01:45;;;;;;;;;;;;;;;37.16;20.84;99768.81;5033374;28;1882;-62
2021/08/16 08:04:14;;;;;;;;;;;;;;;37.26;20.51;99768.16;5033849;28;881;-61
2021/08/16 08:06:41;;;;;;;;;;;;;;;37.57;20.56;99769.34;5033842;28;842;-61
2021/08/16 08:09:08;;;;;;;;;;;;;;;37.43;20.31;99773.13;5033720;28;854;-61
2021/08/16 08:11:35;;;;;;;;;;;;;;;37.62;20.58;99775.44;5033950;28;802;-61
2021/08/16 08:14:01;;;;;;;;;;;;;;;37.89;20.46;99772.63;5033679;28;990;-61
2021/08/16 08:16:28;;;;;;;;;;;;;;;37.63;20.23;99771.22;5043812;28;1217;-62
2021/08/16 08:18:55;;;;;;;;;;;;;;;37.43;20.28;99771.03;5053485;28;985;-61
2021/08/16 08:24:24;;;;;;;;;;;;;;;37.69;20.68;99769.59;5053436;28;629;-61
2021/08/16 08:26:50;;;;;;;;;;;;;;;37.40;20.80;99766.44;5053564;28;878;-61
2021/08/16 08:29:17;;;;;;;;;;;;;;;37.20;20.73;99759.75;5053299;28;854;-61
2021/08/16 08:31:44;;;;;;;;;;;;;;;36.96;20.93;99764.19;5053317;28;889;-61
2021/08/16 08:34:10;;;;;;;;;;;;;;;37.16;21.20;99753.66;5053209;28;826;-61
2021/08/16 08:36:37;;;;;;;;;;;;;;;37.39;20.81;99756.28;5053107;28;790;-61
2021/08/16 08:39:04;;;;;;;;;;;;;;;37.61;20.42;99742.22;5053294;28;886;-61
2021/08/16 08:41:31;;;;;;;;;;;;;;;37.23;20.82;99752.03;5053122;28;1945;-61
2021/08/16 08:43:59;;;;;;;;;;;;;;;37.20;20.43;99745.34;5053053;28;811;-61
2021/08/16 08:46:27;;;;;;;;;;;;;;;36.87;20.86;99750.44;5034999;28;779;-61
2021/08/16 08:48:53;;;;;;;;;;;;;;;36.64;20.92;99747.75;5053120;28;834;-61
2021/08/16 08:51:21;;;;;;;;;;;;;;;36.18;21.36;99746.72;5052997;28;858;-61
2021/08/16 08:53:48;;;;;;;;;;;;;;;36.00;22.05;99742.22;5052832;28;822;-62
2021/08/16 08:56:16;;;;;;;;;;;;;;;36.11;21.76;99750.38;5052726;28;958;-62
2021/08/16 08:58:43;;;;;;;;;;;;;;;36.29;20.98;99736.84;5052741;28;869;-61
2021/08/16 09:01:10;;;;;;;;;;;;;;;36.06;21.14;99731.25;5052528;28;1945;-62
2021/08/16 09:03:57;;;;;;;;;;;;;;;36.37;21.77;99733.94;5034891;28;874;-62
2021/08/16 09:06:30;;;;;;;;;;;;;;;36.81;21.14;99733.41;5052611;28;826;-62
2021/08/16 09:08:58;;;;;;;;;;;;;;;36.73;20.27;99730.59;5052494;28;866;-63
2021/08/16 09:11:25;;;;;;;;;;;;;;;36.35;20.73;99722.25;5051984;28;915;-63
2021/08/16 09:13:56;;;;;;;;;;;;;;;36.06;20.67;99718.97;5052205;28;1016;-62
2021/08/16 09:16:24;;;;;;;;;;;;;;;35.89;20.93;99713.88;5052215;28;1384;-61
2021/08/16 09:18:51;;;;;;;;;;;;;;;35.69;22.11;99718.59;5052712;28;1027;-62
2021/08/16 09:21:26;;;;;;;;;;;;;;;35.60;21.73;99719.19;5052223;28;1959;-61
2021/08/16 09:23:54;;;;;;;;;;;;;;;35.58;22.22;99714.00;5052226;28;957;-62
2021/08/16 09:26:30;;;;;;;;;;;;;;;35.47;21.38;99714.44;5052259;28;818;-61
2021/08/16 09:29:17;;;;;;;;;;;;;;;35.28;21.80;99712.03;5052048;28;847;-61
2021/08/16 09:31:52;;;;;;;;;;;;;;;35.33;22.54;99708.16;5052048;28;1599;-61
2021/08/16 09:34:32;;;;;;;;;;;;;;;35.47;22.32;99706.59;5052105;28;822;-62
2021/08/16 09:37:02;;;;;;;;;;;;;;;35.37;22.24;99709.28;5051994;28;846;-62
2021/08/16 09:39:33;;;;;;;;;;;;;;;35.17;23.13;99705.34;5052176;28;802;-62
2021/08/16 09:42:01;;;;;;;;;;;;;;;34.86;22.50;99700.97;5051800;28;1882;-62
2021/08/16 09:44:29;;;;;;;;;;;;;;;34.52;22.73;99697.13;5051834;28;853;-62
2021/08/16 09:47:05;;;;;;;;;;;;;;;34.32;23.24;99703.84;5051881;28;854;-62
2021/08/16 09:49:33;;;;;;;;;;;;;;;34.42;22.54;99699.06;5051812;28;823;-61
2021/08/16 09:52:10;;;;;;;;;;;;;;;34.42;23.02;99698.28;5051641;28;926;-62
2021/08/16 09:54:37;;;;;;;;;;;;;;;34.66;22.98;99697.75;5051785;28;807;-62
2021/08/16 09:57:05;;;;;;;;;;;;;;;34.89;23.61;99686.25;5034038;28;818;-62
2021/08/16 09:59:36;;;;;;;;;;;;;;;34.84;22.71;99692.19;5051673;28;853;-62
2021/08/16 10:02:03;;;;;;;;;;;;;;;34.72;22.98;99688.94;5051602;28;1878;-62
2021/08/16 10:04:32;;;;;;;;;;;;;;;34.52;23.07;99694.25;5051629;28;865;-62
2021/08/16 10:06:59;;;;;;;;;;;;;;;34.30;23.79;99687.19;5051506;28;898;-61
2021/08/16 10:09:27;;;;;;;;;;;;;;;34.46;23.45;99684.31;5051501;28;878;-62
2021/08/16 10:11:54;;;;;;;;;;;;;;;34.53;23.30;99677.84;5051854;28;865;-62
2021/08/16 10:14:26;;;;;;;;;;;;;;;34.52;23.23;99682.03;5051558;28;935;-62
2021/08/16 10:16:54;;;;;;;;;;;;;;;34.40;23.36;99669.41;5051619;28;1077;-62
2021/08/16 10:19:41;;;;;;;;;;;;;;;34.47;23.18;99671.53;5051608;28;815;-62
2021/08/16 10:22:09;;;;;;;;;;;;;;;34.50;23.35;99668.28;5051332;28;1964;-63
2021/08/16 10:24:36;;;;;;;;;;;;;;;34.31;23.88;99660.06;5056890;28;806;-62
2021/08/16 10:27:04;;;;;;;;;;;;;;;34.31;23.77;99665.00;5058232;28;779;-62
2021/08/16 10:29:31;;;;;;;;;;;;;;;34.58;23.77;99662.53;5057986;28;811;-62
2021/08/16 10:32:00;;;;;;;;;;;;;;;34.59;23.47;99655.47;5057935;28;902;-62
2021/08/16 10:34:32;;;;;;;;;;;;;;;34.35;23.26;99663.31;5058478;28;847;-62
2021/08/16 10:37:00;;;;;;;;;;;;;;;34.21;23.57;99667.69;5057963;28;846;-62
2021/08/16 10:39:36;;;;;;;;;;;;;;;34.17;23.69;99668.06;5057787;28;827;-61
2021/08/16 10:42:07;;;;;;;;;;;;;;;34.39;23.39;99665.03;5057809;28;1939;-62
2021/08/16 10:44:41;;;;;;;;;;;;;;;34.47;24.00;99665.78;5057750;28;852;-62
2021/08/16 10:47:08;;;;;;;;;;;;;;;34.26;23.72;99661.00;5057873;28;811;-62
2021/08/16 10:49:36;;;;;;;;;;;;;;;34.27;23.85;99668.28;5057788;28;860;-61
2021/08/16 10:52:05;;;;;;;;;;;;;;;34.50;24.33;99673.22;5057829;28;844;-62
2021/08/16 10:54:33;;;;;;;;;;;;;;;34.94;23.89;99656.56;5057690;28;855;-63
2021/08/16 10:57:00;;;;;;;;;;;;;;;35.11;23.03;99650.19;5057829;28;838;-62
2021/08/16 10:59:29;;;;;;;;;;;;;;;35.13;22.17;99653.28;5057627;28;886;-63
2021/08/16 11:01:56;;;;;;;;;;;;;;;35.02;22.56;99650.81;5057739;28;1885;-62
2021/08/16 11:04:28;;;;;;;;;;;;;;;35.02;23.04;99642.19;5057676;28;906;-62
2021/08/16 11:06:55;;;;;;;;;;;;;;;35.12;22.79;99636.59;5039835;28;1442;-63
2021/08/16 11:09:25;;;;;;;;;;;;;;;35.06;23.40;99636.03;5039588;28;1168;-63
2021/08/16 11:12:02;;;;;;;;;;;;;;;35.14;23.12;99636.81;5057681;28;861;-62
2021/08/16 11:14:30;;;;;;;;;;;;;;;35.39;22.50;99634.03;5057795;28;934;-63
2021/08/16 11:16:56;;;;;;;;;;;;;;;35.29;22.36;99638.84;5057429;28;1421;-62
2021/08/16 11:19:22;;;;;;;;;;;;;;;35.06;22.72;99636.81;5057569;28;799;-63
2021/08/16 11:21:55;;;;;;;;;;;;;;;35.03;22.88;99629.34;5057480;28;1938;-63
2021/08/16 11:24:27;;;;;;;;;;;;;;;35.12;23.63;99625.09;5057570;28;802;-62
2021/08/16 11:26:54;;;;;;;;;;;;;;;35.23;22.59;99632.56;5057840;28;850;-62
2021/08/16 11:29:24;;;;;;;;;;;;;;;35.22;22.96;99613.81;5057469;28;854;-62
2021/08/16 11:31:52;;;;;;;;;;;;;;;35.18;22.54;99629.31;5058319;28;763;-62
2021/08/16 11:34:19;;;;;;;;;;;;;;;35.29;22.22;99624.50;5057229;28;815;-62
2021/08/16 11:36:45;;;;;;;;;;;;;;;35.62;22.59;99615.91;5053944;28;1288;-62
2021/08/16 11:39:12;;;;;;;;;;;;;;;35.51;22.14;99617.88;5054834;28;775;-62
2021/08/16 11:41:39;;;;;;;;;;;;;;;35.68;23.13;99616.47;5054143;28;1949;-63
2021/08/16 11:44:14;;;;;;;;;;;;;;;36.15;22.19;99615.56;5054195;28;863;-60
2021/08/16 11:46:44;;;;;;;;;;;;;;;36.17;22.61;99612.13;5054091;28;815;-63
2021/08/16 11:49:11;;;;;;;;;;;;;;;36.03;22.90;99611.63;5054099;28;838;-60
2021/08/16 11:51:46;;;;;;;;;;;;;;;35.88;23.42;99598.13;5054003;28;866;-64
2021/08/16 11:54:23;;;;;;;;;;;;;;;35.61;23.33;99608.63;5054017;28;862;-63
2021/08/16 11:56:51;;;;;;;;;;;;;;;35.52;23.26;99604.25;5053919;28;811;-63
2021/08/16 11:59:17;;;;;;;;;;;;;;;35.29;24.29;99601.50;5053846;28;810;-63
2021/08/16 12:01:43;;;;;;;;;;;;;;;35.71;23.77;99601.69;5053784;28;1901;-63
2021/08/16 12:04:13;;;;;;;;;;;;;;;35.82;23.43;99602.56;5053748;28;799;-62
2021/08/16 12:06:40;;;;;;;;;;;;;;;35.95;23.19;99590.78;5053720;28;871;-63
2021/08/16 12:09:07;;;;;;;;;;;;;;;35.90;23.63;99589.66;5053593;28;787;-62
2021/08/16 12:11:34;;;;;;;;;;;;;;;35.96;23.16;99593.06;5053673;28;888;-61
2021/08/16 12:14:02;;;;;;;;;;;;;;;35.62;24.31;99602.28;5035575;28;939;-61
2021/08/16 12:16:29;;;;;;;;;;;;;;;35.56;24.33;99596.00;5053269;28;1369;-61
2021/08/16 12:18:57;;;;;;;;;;;;;;;35.89;25.06;99593.13;5053534;28;806;-63
2021/08/16 12:21:24;;;;;;;;;;;;;;;35.82;25.23;99588.19;5053355;28;1922;-62
2021/08/16 12:23:55;;;;;;;;;;;;;;;35.62;25.98;99584.28;5035512;28;886;-61
2021/08/16 12:26:29;;;;;;;;;;;;;;;35.70;26.62;99590.75;5053383;28;814;-63
2021/08/16 12:28:56;;;;;;;;;;;;;;;35.47;26.27;99579.41;5053447;28;873;-62
2021/08/16 12:31:28;;;;;;;;;;;;;;;35.57;26.78;99577.41;5053588;28;830;-63
2021/08/16 12:33:59;;;;;;;;;;;;;;;35.73;26.30;99567.38;5053303;28;893;-60
2021/08/16 12:36:28;;;;;;;;;;;;;;;35.76;26.46;99579.78;5035422;28;877;-60
2021/08/16 12:38:58;;;;;;;;;;;;;;;35.71;26.68;99570.06;5053129;28;803;-61
2021/08/16 12:41:26;;;;;;;;;;;;;;;35.56;27.27;99578.75;5052989;28;1906;-61
2021/08/16 12:43:53;;;;;;;;;;;;;;;35.65;27.12;99563.78;5053056;28;815;-60
2021/08/16 12:46:30;;;;;;;;;;;;;;;35.77;27.21;99569.84;5052311;28;779;-61
2021/08/16 12:48:57;;;;;;;;;;;;;;;35.62;27.24;99558.44;5052659;28;902;-61
2021/08/16 12:51:24;;;;;;;;;;;;;;;35.37;27.90;99570.63;5052965;28;838;-62
2021/08/16 12:53:51;;;;;;;;;;;;;;;35.20;28.21;99564.81;5052790;28;898;-62
2021/08/16 12:56:18;;;;;;;;;;;;;;;35.25;28.46;99566.69;5052679;28;1134;-62
2021/08/16 12:58:44;;;;;;;;;;;;;;;35.24;27.84;99565.16;5052767;28;849;-63
2021/08/16 13:01:17;;;;;;;;;;;;;;;35.34;28.68;99566.81;5052914;28;1948;-63
2021/08/16 13:03:43;;;;;;;;;;;;;;;35.41;27.85;99562.38;5052621;28;866;-63
2021/08/16 13:06:10;;;;;;;;;;;;;;;35.63;27.90;99571.44;5052652;28;877;-63
2021/08/16 13:08:37;;;;;;;;;;;;;;;35.91;27.80;99548.09;5052518;28;823;-63
2021/08/16 13:11:04;;;;;;;;;;;;;;;35.69;27.63;99563.38;5052520;28;822;-62
2021/08/16 13:13:31;;;;;;;;;;;;;;;35.14;28.81;99556.38;5052472;28;886;-62
2021/08/16 13:15:57;;;;;;;;;;;;;;;35.07;28.86;99557.94;5052403;28;1256;-62
2021/08/16 13:18:24;;;;;;;;;;;;;;;34.98;28.73;99561.44;5052405;28;842;-62
2021/08/16 13:20:51;;;;;;;;;;;;;;;34.61;29.03;99563.03;5052264;28;1984;-63
2021/08/16 13:23:18;;;;;;;;;;;;;;;34.31;29.37;99565.41;5052298;28;807;-62
2021/08/16 13:25:45;;;;;;;;;;;;;;;34.12;30.13;99556.44;5052247;28;862;-63
2021/08/16 13:28:11;;;;;;;;;;;;;;;34.29;29.92;99558.69;5052240;28;822;-63
2021/08/16 13:30:38;;;;;;;;;;;;;;;34.39;29.78;99556.78;5052184;28;909;-63
2021/08/16 13:33:06;;;;;;;;;;;;;;;35.02;29.72;99552.41;5052092;28;806;-63
2021/08/16 13:35:32;;;;;;;;;;;;;;;35.01;29.41;99551.63;5052043;28;854;-63
2021/08/16 13:37:59;;;;;;;;;;;;;;;34.73;29.06;99559.19;5051999;28;847;-63
2021/08/16 13:40:25;;;;;;;;;;;;;;;34.71;29.17;99561.13;5051993;28;795;-63
2021/08/16 13:42:52;;;;;;;;;;;;;;;34.44;29.95;99546.44;5052188;28;1953;-62
2021/08/16 13:45:18;;;;;;;;;;;;;;;34.33;29.81;99547.59;5051897;28;830;-63
2021/08/16 13:47:45;;;;;;;;;;;;;;;34.29;30.36;99550.88;5051899;28;810;-63
2021/08/16 13:50:12;;;;;;;;;;;;;;;34.01;30.72;99548.19;5051890;28;857;-63
2021/08/16 13:52:38;;;;;;;;;;;;;;;33.76;31.19;99555.25;5051975;28;877;-63
2021/08/16 13:55:06;;;;;;;;;;;;;;;33.61;31.16;99560.19;5051740;28;834;-63
2021/08/16 13:57:32;;;;;;;;;;;;;;;33.50;32.06;99562.06;5051524;28;819;-62
2021/08/16 13:59:59;;;;;;;;;;;;;;;33.29;32.30;99555.72;5051638;28;811;-63
2021/08/16 14:02:25;;;;;;;;;;;;;;;33.24;32.23;99557.41;5051682;28;1957;-63
2021/08/16 14:04:52;;;;;;;;;;;;;;;32.90;32.34;99554.75;5051633;28;882;-63
2021/08/16 14:07:19;;;;;;;;;;;;;;;32.47;32.98;99553.38;5051412;28;854;-62
2021/08/16 14:09:45;;;;;;;;;;;;;;;32.25;33.50;99560.47;5051866;28;783;-62
2021/08/16 14:12:12;;;;;;;;;;;;;;;32.05;33.49;99550.59;5051617;28;830;-62
2021/08/16 14:14:38;;;;;;;;;;;;;;;31.93;33.37;99552.94;5051656;28;997;-63
2021/08/16 14:17:06;;;;;;;;;;;;;;;32.15;32.98;99554.47;5051494;28;1261;-62
2021/08/16 14:19:33;;;;;;;;;;;;;;;32.20;32.96;99559.31;5051460;28;964;-62
2021/08/16 14:22:02;;;;;;;;;;;;;;;32.04;32.95;99546.97;5051371;28;1955;-62
2021/08/16 14:24:28;;;;;;;;;;;;;;;32.04;33.10;99546.22;5051455;28;822;-62
2021/08/16 14:26:55;;;;;;;;;;;;;;;31.80;32.90;99545.22;5051305;28;889;-62
2021/08/16 14:29:22;;;;;;;;;;;;;;;31.79;32.84;99542.91;5051367;28;890;-62
2021/08/16 14:31:49;;;;;;;;;;;;;;;31.80;32.22;99545.22;5051329;28;795;-63
2021/08/16 14:34:16;;;;;;;;;;;;;;;31.91;32.68;99544.16;5033399;28;1168;-62
2021/08/16 14:36:43;;;;;;;;;;;;;;;31.91;32.80;99550.66;5051310;28;833;-62
2021/08/16 14:39:10;;;;;;;;;;;;;;;31.70;32.76;99547.03;5051266;28;838;-62
2021/08/16 14:41:36;;;;;;;;;;;;;;;31.80;32.79;99533.78;5051143;28;2000;-62
2021/08/16 14:44:03;;;;;;;;;;;;;;;31.81;32.20;99546.75;5051233;28;850;-61
2021/08/16 14:46:30;;;;;;;;;;;;;;;31.62;32.16;99540.47;5051222;28;822;-62
2021/08/16 14:48:57;;;;;;;;;;;;;;;31.58;32.14;99546.56;5051214;28;874;-62
2021/08/16 14:51:24;;;;;;;;;;;;;;;31.36;32.92;99542.09;5051232;28;806;-61
2021/08/16 14:53:49;;;;;;;;;;;;;;;31.20;32.32;99540.41;5051208;28;827;-62
2021/08/16 14:56:16;;;;;;;;;;;;;;;31.22;32.50;99555.66;5051555;28;858;-62
2021/08/16 14:58:43;;;;;;;;;;;;;;;31.42;32.07;99541.97;5051304;28;851;-61
2021/08/16 15:01:10;;;;;;;;;;;;;;;31.43;31.36;99547.16;5051589;28;1973;-63
2021/08/16 15:03:39;;;;;;;;;;;;;;;31.37;31.46;99549.34;5051586;28;956;-61
2021/08/16 15:06:06;;;;;;;;;;;;;;;31.38;31.96;99550.88;5050882;28;857;-62
2021/08/16 15:08:34;;;;;;;;;;;;;;;31.47;31.18;99546.78;5051033;28;837;-61
2021/08/16 15:11:03;;;;;;;;;;;;;;;31.30;31.57;99550.00;5053288;28;826;-62
2021/08/16 15:13:32;;;;;;;;;;;;;;;31.18;32.08;99546.66;5054689;28;857;-62
2021/08/16 15:16:02;;;;;;;;;;;;;;;31.29;31.61;99545.63;5054841;28;1436;-62
2021/08/16 15:18:29;;;;;;;;;;;;;;;31.30;31.79;99542.25;5054693;28;850;-62
2021/08/16 15:20:56;;;;;;;;;;;;;;;31.44;32.15;99542.97;5054531;28;1910;-62
2021/08/16 15:23:23;;;;;;;;;;;;;;;31.42;31.67;99539.13;5054562;28;838;-62
2021/08/16 15:25:50;;;;;;;;;;;;;;;30.96;32.99;99545.06;5054526;28;815;-61
2021/08/16 15:28:17;;;;;;;;;;;;;;;30.20;35.44;99531.22;5054507;28;852;-62
2021/08/16 15:30:44;;;;;;;;;;;;;;;29.44;36.95;99539.22;5054476;28;803;-62
2021/08/16 15:33:10;;;;;;;;;;;;;;;28.81;38.47;99539.28;5054318;28;890;-61
2021/08/16 15:35:37;;;;;;;;;;;;;;;28.45;37.94;99539.41;5054147;28;930;-62
2021/08/16 15:38:04;;;;;;;;;;;;;;;28.15;37.73;99547.22;5054505;28;837;-63
2021/08/16 15:40:34;;;;;;;;;;;;;;;27.90;38.81;99545.13;5054277;28;897;-61
2021/08/16 15:43:01;;;;;;;;;;;;;;;27.67;37.95;99543.72;5036318;28;1957;-62
2021/08/16 15:45:28;;;;;;;;;;;;;;;27.49;38.80;99553.69;5054100;28;851;-62
2021/08/16 15:47:54;;;;;;;;;;;;;;;27.36;40.40;99547.84;5054230;28;865;-61
2021/08/16 15:50:21;;;;;;;;;;;;;;;27.20;40.75;99549.44;5054068;28;850;-61
2021/08/16 15:52:48;;;;;;;;;;;;;;;27.05;41.09;99553.38;5053969;28;848;-61
2021/08/16 15:55:14;;;;;;;;;;;;;;;26.97;41.05;99557.28;5054308;28;890;-61
2021/08/16 15:57:42;;;;;;;;;;;;;;;26.91;41.43;99557.34;5036157;28;827;-61
2021/08/16 16:00:08;;;;;;;;;;;;;;;26.78;40.91;99555.06;5053912;28;850;-61
2021/08/16 16:02:35;;;;;;;;;;;;;;;26.65;40.83;99560.50;5053753;28;1955;-61
2021/08/16 16:05:02;;;;;;;;;;;;;;;26.54;40.99;99557.69;5053687;28;870;-61
2021/08/16 16:07:28;;;;;;;;;;;;;;;26.46;40.54;99557.47;5053671;28;850;-61
2021/08/16 16:09:55;;;;;;;;;;;;;;;26.37;39.95;99561.34;5053724;28;814;-61
2021/08/16 16:12:23;;;;;;;;;;;;;;;26.29;39.96;99557.50;5053600;28;842;-60
2021/08/16 16:14:48;;;;;;;;;;;;;;;26.17;40.06;99564.47;5053741;28;899;-61
2021/08/16 16:17:14;;;;;;;;;;;;;;;26.03;40.44;99554.94;5053389;28;1236;-61
2021/08/16 16:19:41;;;;;;;;;;;;;;;25.89;40.87;99556.75;5053549;28;815;-60
2021/08/16 16:22:09;;;;;;;;;;;;;;;25.71;41.11;99549.53;5053321;28;1910;-61
2021/08/16 16:24:36;;;;;;;;;;;;;;;25.58;41.41;99557.75;5053535;28;846;-61
2021/08/16 16:27:02;;;;;;;;;;;;;;;25.42;42.18;99554.38;5053431;28;866;-60
2021/08/16 16:29:29;;;;;;;;;;;;;;;25.27;43.57;99556.69;5053335;28;798;-60
2021/08/16 16:31:56;;;;;;;;;;;;;;;25.10;44.39;99561.50;5053382;28;897;-61
2021/08/16 16:34:23;;;;;;;;;;;;;;;24.94;45.38;99565.78;5053207;28;865;-60
2021/08/16 16:36:50;;;;;;;;;;;;;;;24.82;46.04;99562.16;5053225;28;873;-60
2021/08/16 16:39:17;;;;;;;;;;;;;;;24.69;46.61;99567.47;5053118;28;901;-60
2021/08/16 16:41:44;;;;;;;;;;;;;;;24.53;47.15;99568.94;5053084;28;1906;-60
2021/08/16 16:44:11;;;;;;;;;;;;;;;24.32;47.68;99574.69;5053034;28;807;-60
2021/08/16 16:46:39;;;;;;;;;;;;;;;24.10;48.19;99574.53;5053325;28;897;-60
2021/08/16 16:49:06;;;;;;;;;;;;;;;23.89;48.61;99580.28;5052946;28;913;-60
2021/08/16 16:51:33;;;;;;;;;;;;;;;23.71;49.24;99577.78;5052952;28;873;-60
2021/08/16 16:53:59;;;;;;;;;;;;;;;23.55;49.48;99579.94;5052884;28;925;-60
2021/08/16 16:56:25;;;;;;;;;;;;;;;23.35;50.11;99575.13;5052827;28;858;-60
2021/08/16 16:58:52;;;;;;;;;;;;;;;23.10;50.65;99581.50;5053039;28;819;-60
2021/08/16 17:01:19;;;;;;;;;;;;;;;22.86;50.82;99568.41;5052722;28;1944;-60
2021/08/16 17:03:46;;;;;;;;;;;;;;;22.61;51.76;99590.34;5052571;28;954;-60
2021/08/16 17:06:13;;;;;;;;;;;;;;;22.47;52.40;99579.91;5052632;28;885;-60
2021/08/16 17:08:40;;;;;;;;;;;;;;;22.36;52.92;99588.19;5052646;28;893;-60
2021/08/16 17:11:09;;;;;;;;;;;;;;;22.28;53.27;99592.69;5052436;28;929;-60
2021/08/16 17:13:36;;;;;;;;;;;;;;;22.10;53.40;99585.97;5052532;28;894;-60
2021/08/16 17:16:03;;;;;;;;;;;;;;;21.91;53.38;99593.09;5052364;28;1336;-60
2021/08/16 17:18:30;;;;;;;;;;;;;;;21.71;54.01;99591.72;5052464;28;893;-60
2021/08/16 17:20:56;;;;;;;;;;;;;;;21.52;54.25;99593.19;5052271;28;1973;-60
2021/08/16 17:23:23;;;;;;;;;;;;;;;21.32;54.18;99591.78;5052296;28;858;-60
2021/08/16 17:25:50;;;;;;;;;;;;;;;21.18;54.56;99601.72;5052256;28;811;-60
2021/08/16 17:28:18;;;;;;;;;;;;;;;21.08;55.07;99605.06;5052295;28;901;-60
2021/08/16 17:30:45;;;;;;;;;;;;;;;20.90;55.62;99603.19;5052163;28;822;-60
2021/08/16 17:33:12;;;;;;;;;;;;;;;20.72;56.56;99606.91;5051446;28;850;-60
2021/08/16 17:35:38;;;;;;;;;;;;;;;20.60;57.08;99603.06;5052265;28;834;-60
2021/08/16 17:38:04;;;;;;;;;;;;;;;20.46;57.68;99612.13;5052254;28;858;-60
2021/08/16 17:40:30;;;;;;;;;;;;;;;20.31;58.01;99614.84;5052310;28;830;-60
2021/08/16 17:42:57;;;;;;;;;;;;;;;20.21;58.48;99622.53;5051902;28;1859;-60
2021/08/16 17:45:24;;;;;;;;;;;;;;;20.14;58.93;99628.47;5051764;28;914;-60
2021/08/16 17:47:52;;;;;;;;;;;;;;;20.05;59.16;99628.50;5051904;28;815;-60
2021/08/16 17:50:19;;;;;;;;;;;;;;;19.88;59.54;99628.88;5051788;28;958;-60
2021/08/16 17:52:46;;;;;;;;;;;;;;;19.71;60.08;99638.88;5051986;28;849;-60
2021/08/16 17:55:12;;;;;;;;;;;;;;;19.56;60.86;99635.91;5051858;28;897;-59
2021/08/16 17:57:39;;;;;;;;;;;;;;;19.42;61.45;99630.94;5051765;28;885;-60
2021/08/16 18:00:07;;;;;;;;;;;;;;;19.27;62.12;99636.38;5051801;28;863;-60
2021/08/16 18:02:37;;;;;;;;;;;;;;;19.11;62.41;99641.03;5051577;28;1890;-60
2021/08/16 18:05:04;;;;;;;;;;;;;;;18.95;62.76;99642.09;5051608;28;873;-59
2021/08/16 18:07:31;;;;;;;;;;;;;;;18.90;63.13;99644.72;5051510;28;941;-60
2021/08/16 18:09:58;;;;;;;;;;;;;;;18.88;63.13;99647.22;5051493;28;805;-60
2021/08/16 18:12:25;;;;;;;;;;;;;;;18.79;63.72;99641.59;5051574;28;862;-60
2021/08/16 18:14:52;;;;;;;;;;;;;;;18.76;63.70;99654.47;5051350;28;1056;-60
2021/08/16 18:17:18;;;;;;;;;;;;;;;18.72;64.21;99648.25;5051161;28;1235;-59
2021/08/16 18:19:45;;;;;;;;;;;;;;;18.72;64.63;99656.66;5051531;28;806;-60
2021/08/16 18:22:13;;;;;;;;;;;;;;;18.71;65.05;99655.06;5051278;28;1914;-59
2021/08/16 18:24:40;;;;;;;;;;;;;;;18.65;65.46;99652.13;5051455;28;838;-59